LFKC

Calvi-Sainte-Catherine Airport

Airport
ICAO code
LFKC
IATA Code
CLY
Summary
ICAO Region
EUR
ICAO Territory
Location

, Corse

Serving
Calvi
Elevation
209 ft
Coordinates
42° 31' 51" N , 8° 47' 35" E
Metar
Observation
LFKC 020000Z AUTO 18005KT 9999 BKN068 07/04 Q1016
Station
Calvi
Date/Time
2022-12-02 00:00:00
Wind direction
180°
Wind speed
05 kts
Lowest cloud amount
broken clouds
Temperature
7°C
Dew point
4°C
Humidity
81%
QNH
1016 hPa
Weather condition
n/a

Runways

Designator Length Width Surface Rops
18/36 2310 40 CON Yes/Yes

Airport map

Aerial View

SKYbrary Partners:

Safety knowledge contributed by: